Currently 52°F in San Jacinto, California, USA
52°F
59°F / 52°F
calm
0.00"
Wednesday, October 17, 2018 4:57 AM PDT

San Jacinto, California Weather Summary
Last 36 Hours

Temperature Winds Hourly Humidity Dewpoint
Time Report Norm Report Norm Max Gusts Precip. Rpt. Norm Rpt. Norm Pressure
1Wed 04:57 AM  52.0°F  57°F  calm  calm  2 mph  0.00"  45%  69%  30°F  47°F  30.13"
3Wed 04:53 AM  52.0°F  57°F  2 mph E  calm  2 mph  ----  45%  69%  30°F  47°F  30.13"
Wed 04:00 AM  52.5°F  58°F  2 mph NE  calm  5 mph  0.00"  43%  68%  30°F  47°F  30.12"
Wed 03:00 AM  54.0°F  59°F  2 mph W  1 mph  7 mph  0.00"  38%  67%  28°F  47°F  30.11"
Wed 02:00 AM  54.5°F  60°F  2 mph NE  1 mph  6 mph  0.00"  39%  66%  29°F  48°F  30.13"
Wed 01:00 AM  56.5°F  61°F  2 mph NE  1 mph  7 mph  0.00"  34%  64%  27°F  48°F  30.13"
2Wed 12:00 AM  58.8°F  62°F  1 mph NW  calm  9 mph  0.00"  30%  63%  26°F  49°F  30.13"
Tue 11:00 PM  61.2°F  64°F  2 mph NW  1 mph  8 mph  0.00"  26%  61%  25°F  49°F  30.14"
Tue 10:00 PM  62.6°F  65°F  3 mph W  1 mph  8 mph  0.00"  25%  59%  25°F  50°F  30.14"
Tue 09:00 PM  63.7°F  67°F  4 mph NW  1 mph  8 mph  0.00"  23%  56%  24°F  51°F  30.12"
Tue 08:00 PM  71.1°F  69°F  5 mph E  1 mph  14 mph  0.00"  15%  53%  19°F  51°F  30.11"
Tue 07:00 PM  70.5°F  72°F  5 mph E  2 mph  10 mph  0.00"  13%  48%  15°F  50°F  30.08"
Tue 06:00 PM  76.1°F  75°F  1 mph N  3 mph  8 mph  0.00"  12%  42%  18°F  50°F  30.06"
Tue 05:00 PM  76.6°F  78°F  3 mph NW  4 mph  11 mph  0.00"  9%  36%  11°F  48°F  30.05"
Tue 04:00 PM  76.6°F  80°F  7 mph NW  4 mph  14 mph  0.00"  7%  33%  5°F  47°F  30.05"
Tue 03:00 PM  76.5°F  80°F  7 mph W  4 mph  16 mph  0.00"  6%  33%  2°F  47°F  30.06"
Tue 02:00 PM  76.8°F  79°F  8 mph NW  3 mph  14 mph  0.00"  7%  34%  5°F  48°F  30.07"
Tue 01:00 PM  75.0°F  78°F  3 mph SE  3 mph  10 mph  0.00"  8%  36%  7°F  48°F  30.10"
Tue 12:00 PM  71.6°F  75°F  1 mph W  2 mph  8 mph  0.00"  15%  40%  20°F  49°F  30.12"
Tue 11:00 AM  69.3°F  72°F  4 mph SE  2 mph  7 mph  0.00"  17%  47%  21°F  50°F  30.14"
Tue 10:00 AM  64.2°F  68°F  calm  1 mph  6 mph  0.00"  20%  55%  21°F  50°F  30.16"
Tue 09:00 AM  57.7°F  63°F  2 mph E  1 mph  7 mph  0.00"  27%  62%  22°F  49°F  30.15"
Tue 08:00 AM  50.5°F  58°F  calm  1 mph  6 mph  0.00"  38%  70%  25°F  48°F  30.13"
Tue 07:00 AM  48.0°F  56°F  1 mph E  1 mph  3 mph  0.00"  41%  73%  24°F  47°F  30.12"
Tue 06:00 AM  50.5°F  56°F  1 mph E  1 mph  7 mph  0.00"  36%  72%  23°F  47°F  30.12"
Tue 05:00 AM  51.1°F  57°F  2 mph S  calm  6 mph  0.00"  33%  71%  22°F  47°F  30.11"
Tue 04:00 AM  52.3°F  58°F  2 mph SW  calm  8 mph  0.00"  28%  69%  19°F  47°F  30.09"
Tue 03:00 AM  54.3°F  58°F  3 mph SE  calm  7 mph  0.00"  26%  68%  19°F  48°F  30.09"
Tue 02:00 AM  55.6°F  59°F  5 mph NW  1 mph  11 mph  0.00"  23%  67%  17°F  48°F  30.11"
Tue 01:00 AM  57.7°F  61°F  4 mph W  1 mph  10 mph  0.00"  20%  65%  15°F  49°F  30.10"
Tue 12:00 AM  58.5°F  62°F  2 mph W  1 mph  11 mph  0.00"  20%  64%  16°F  49°F  30.11"
Mon 11:00 PM  59.4°F  64°F  2 mph W  1 mph  17 mph  0.00"  18%  62%  14°F  50°F  30.11"
Mon 10:00 PM  58.1°F  66°F  3 mph NW  1 mph  14 mph  0.00"  19%  60%  14°F  51°F  30.10"
Mon 09:00 PM  61.5°F  67°F  4 mph NW  1 mph  22 mph  0.00"  17%  57%  14°F  51°F  30.09"
Mon 08:00 PM  65.8°F  69°F  2 mph NW  1 mph  23 mph  0.00"  10%  54%  5°F  51°F  30.09"
Mon 07:00 PM  67.8°F  72°F  9 mph NE  2 mph  28 mph  0.00"  7%  50%  -1°F  51°F  30.08"
Mon 06:00 PM  68.4°F  76°F  13 mph E  3 mph  34 mph  0.00"  8%  43%  2°F  50°F  30.08"
Mon 05:00 PM  69.6°F  78°F  17 mph NE  4 mph  29 mph  0.00"  8%  37%  3°F  49°F  30.08"

  1. Current weather data. No green row appears if the current weather data is also the high or low for the current day.
  2. High temperature for the current day.
  3. Low temperature for the current day.

The San Jacinto, California weather pages are a service of WeatherCurrents. San Jacinto is located in the heart of the San Jacinto Valley, near Hemet, the Soboba Casino, and at the foot of the San Jacinto Mountains.
Copyright ©Wed Oct 17 04:59:02 PDT 2018  WeatherCurrents. All rights reserved. - Submit questions and comments - Privacy Policy

This page automatically refreshes every 10 minutes.